Time;durP1;ratioP1;P1;durP2;ratioP2;P2;SDS_P1;SDS_P2;PMS_P1;PMS_P2;Temp;Humidity;BMP_temperature;BMP_pressure;BME280_temperature;BME280_humidity;BME280_pressure;Samples;Min_cycle;Max_cycle;Signal;HPM_P1;HPM_P2
2022/06/03 00:02:24;;;;;;;5.38;2.90;;;;;;;18.98;73.01;100738.38;5049011;28;20028;-66
2022/06/03 00:05:03;;;;;;;6.07;2.63;;;;;;;18.97;72.97;100733.97;5019255;28;20411;-64
2022/06/03 00:07:54;;;;;;;8.75;3.17;;;;;;;18.96;72.73;100724.09;5047374;28;20051;-64
2022/06/03 00:10:22;;;;;;;6.68;3.08;;;;;;;18.96;72.57;100732.25;5049009;28;20020;-63
2022/06/03 00:12:50;;;;;;;7.22;3.33;;;;;;;18.97;71.95;100733.13;5048934;28;20520;-65
2022/06/03 00:15:47;;;;;;;5.40;3.05;;;;;;;18.94;71.79;100726.19;5060709;28;20031;-65
2022/06/03 00:18:18;;;;;;;4.95;2.92;;;;;;;18.96;71.47;100726.00;5069045;28;20056;-65
2022/06/03 00:21:05;;;;;;;5.45;3.17;;;;;;;18.98;70.62;100734.81;5068855;28;20036;-65
2022/06/03 00:23:51;;;;;;;3.50;2.72;;;;;;;18.98;70.32;100735.66;5068625;28;20037;-65
2022/06/03 00:26:43;;;;;;;4.28;3.25;;;;;;;18.95;70.04;100744.16;5067200;28;20036;-65
2022/06/03 00:29:22;;;;;;;7.53;3.67;;;;;;;18.98;69.88;100740.25;5049417;28;20437;-65
2022/06/03 00:32:04;;;;;;;7.97;3.30;;;;;;;18.98;69.97;100753.84;5056620;28;20094;-65
2022/06/03 00:34:48;;;;;;;4.57;3.10;;;;;;;18.96;69.75;100745.84;5068345;28;20036;-65
2022/06/03 00:37:45;;;;;;;5.60;3.15;;;;;;;18.98;69.46;100751.97;5068563;28;20032;-64
2022/06/03 00:40:35;;;;;;;6.55;3.38;;;;;;;18.96;69.53;100745.03;5068506;28;20040;-65
2022/06/03 00:43:32;;;;;;;4.88;3.00;;;;;;;18.94;69.11;100745.19;5067016;28;20051;-65
2022/06/03 00:46:35;;;;;;;3.35;2.53;;;;;;;18.94;69.17;100745.19;5068469;28;20032;-65
2022/06/03 00:49:22;;;;;;;6.00;3.05;;;;;;;18.83;69.77;100726.56;5068201;28;20044;-65
2022/06/03 00:52:02;;;;;;;3.75;2.55;;;;;;;18.90;69.53;100740.28;5052179;28;20039;-65
2022/06/03 00:55:05;;;;;;;4.35;2.45;;;;;;;18.84;69.54;100720.13;5053089;28;20464;-65
2022/06/03 00:57:33;;;;;;;7.35;2.55;;;;;;;18.92;69.51;100733.66;5038089;28;20068;-65
2022/06/03 01:00:17;;;;;;;4.47;2.70;;;;;;;18.88;69.42;100721.44;5059313;28;20024;-65
2022/06/03 01:03:30;;;;;;;4.90;2.70;;;;;;;18.97;69.23;100741.28;5047916;28;20124;-65
2022/06/03 01:05:55;;;;;;;3.45;2.55;;;;;;;19.00;69.02;100744.50;5029133;28;20053;-65
2022/06/03 01:08:58;;;;;;;3.78;2.85;;;;;;;19.03;69.06;100735.97;5047842;28;20464;-65
2022/06/03 01:11:52;;;;;;;5.05;2.70;;;;;;;19.02;69.06;100728.00;5047716;28;20032;-65
2022/06/03 01:14:50;;;;;;;5.93;3.08;;;;;;;19.05;68.71;100728.47;5067864;28;20094;-65
2022/06/03 01:17:25;;;;;;;5.07;2.58;;;;;;;19.13;68.42;100736.59;5066156;28;20037;-65
2022/06/03 01:20:15;;;;;;;4.07;2.90;;;;;;;19.15;68.61;100733.69;5067886;28;20031;-65
2022/06/03 01:22:59;;;;;;;4.97;2.65;;;;;;;19.16;68.50;100738.97;5066117;28;20038;-65
2022/06/03 01:25:58;;;;;;;3.47;2.80;;;;;;;19.19;68.53;100743.19;5059082;28;20036;-65
2022/06/03 01:28:42;;;;;;;3.60;3.00;;;;;;;19.22;68.39;100740.94;5048290;28;20037;-65
2022/06/03 01:31:46;;;;;;;4.15;3.13;;;;;;;19.23;68.38;100741.78;5066748;28;20063;-65
2022/06/03 01:34:20;;;;;;;4.15;2.30;;;;;;;19.21;68.40;100733.81;5049579;28;20028;-65
2022/06/03 01:36:48;;;;;;;3.88;2.30;;;;;;;19.20;68.90;100734.84;5067658;28;20031;-65
2022/06/03 01:39:52;;;;;;;3.45;3.13;;;;;;;19.19;68.97;100743.19;5067431;28;20016;-65
2022/06/03 01:42:24;;;;;;;3.22;2.60;;;;;;;19.17;68.92;100742.50;5063918;28;20530;-65
2022/06/03 01:45:07;;;;;;;4.13;3.00;;;;;;;19.17;69.08;100739.78;5067546;28;20032;-65
2022/06/03 01:48:16;;;;;;;3.40;2.63;;;;;;;19.16;69.52;100736.25;5051574;28;20052;-65
2022/06/03 01:50:51;;;;;;;3.17;2.83;;;;;;;19.15;69.64;100752.75;5067365;28;20030;-65
2022/06/03 01:53:58;;;;;;;4.43;2.53;;;;;;;19.11;69.78;100763.13;5067417;28;20024;-65
2022/06/03 01:56:30;;;;;;;2.90;2.70;;;;;;;19.01;70.04;100735.31;5053125;28;20048;-65
2022/06/03 01:59:09;;;;;;;5.07;3.05;;;;;;;19.05;70.26;100744.78;5067515;28;20032;-65
2022/06/03 02:01:56;;;;;;;3.00;2.33;;;;;;;19.00;70.57;100758.09;5056200;28;20020;-65
2022/06/03 02:04:21;;;;;;;4.95;3.00;;;;;;;18.87;71.14;100736.06;5049237;28;20049;-65
2022/06/03 02:06:53;;;;;;;3.70;3.25;;;;;;;18.95;71.43;100763.19;5051620;28;20035;-65
2022/06/03 02:09:44;;;;;;;4.05;2.80;;;;;;;18.80;71.64;100745.94;5051239;28;20091;-65
2022/06/03 02:12:26;;;;;;;7.30;3.50;;;;;;;18.86;71.87;100763.44;5050016;28;20204;-65
2022/06/03 02:15:19;;;;;;;5.32;3.28;;;;;;;18.80;72.06;100762.25;5051425;28;20025;-65
2022/06/03 02:18:03;;;;;;;6.05;3.85;;;;;;;18.75;73.36;100756.50;5051151;28;20041;-65
2022/06/03 02:20:56;;;;;;;5.60;3.72;;;;;;;18.72;73.28;100754.13;5051160;28;20040;-65
2022/06/03 02:23:37;;;;;;;7.22;4.20;;;;;;;18.70;73.47;100758.88;5050933;28;20498;-64
2022/06/03 02:26:04;;;;;;;4.32;3.25;;;;;;;18.69;73.82;100769.94;5051371;28;20071;-65
2022/06/03 02:30:24;;;;;;;8.45;4.07;;;;;;;18.67;73.91;100763.84;5050906;28;20069;-65
2022/06/03 02:31:43;;;;;;;5.03;3.60;;;;;;;18.65;74.33;100764.03;5050829;28;20040;-65
2022/06/03 02:34:27;;;;;;;6.15;3.65;;;;;;;18.63;74.24;100760.63;5050408;28;20020;-65
2022/06/03 02:37:15;;;;;;;6.03;3.67;;;;;;;18.62;74.42;100758.94;5050839;28;20497;-65
2022/06/03 02:40:06;;;;;;;5.57;3.85;;;;;;;18.64;74.96;100764.19;5050649;28;20103;-65
2022/06/03 02:43:09;;;;;;;5.80;3.70;;;;;;;18.60;74.64;100765.56;5032259;28;20075;-65
2022/06/03 02:46:02;;;;;;;5.22;3.17;;;;;;;18.61;75.08;100764.53;5057481;28;20090;-65
2022/06/03 02:48:46;;;;;;;10.27;4.25;;;;;;;18.59;74.87;100770.16;5050180;28;20045;-65
2022/06/03 02:51:26;;;;;;;3.83;3.53;;;;;;;18.62;75.67;100775.25;5050597;28;20044;-65
2022/06/03 02:54:29;;;;;;;6.47;4.05;;;;;;;18.62;75.29;100777.97;5050327;28;20020;-65
2022/06/03 02:57:32;;;;;;;7.68;4.32;;;;;;;18.61;75.53;100779.00;5045465;28;20083;-65
2022/06/03 03:00:12;;;;;;;5.50;3.72;;;;;;;18.61;75.53;100789.84;5049241;28;20017;-65
2022/06/03 03:02:50;;;;;;;9.80;3.75;;;;;;;18.60;75.53;100790.84;5050138;28;20643;-65
2022/06/03 03:05:38;;;;;;;8.65;4.25;;;;;;;18.60;76.18;100788.13;5048251;28;20052;-65
2022/06/03 03:08:33;;;;;;;9.27;3.95;;;;;;;18.60;76.93;100788.13;5049842;28;20044;-65
2022/06/03 03:11:11;;;;;;;4.57;4.05;;;;;;;18.60;77.57;100787.31;5056453;28;20025;-64
2022/06/03 03:14:07;;;;;;;11.23;4.65;;;;;;;18.60;77.48;100788.13;5052439;28;20469;-65
2022/06/03 03:16:57;;;;;;;7.05;4.13;;;;;;;18.60;77.05;100785.41;5047423;28;20020;-64
2022/06/03 03:19:43;;;;;;;8.10;4.97;;;;;;;18.60;77.34;100790.03;5049442;28;20044;-65
2022/06/03 03:22:44;;;;;;;7.10;4.43;;;;;;;18.60;77.71;100792.75;5054865;28;20028;-64
2022/06/03 03:25:32;;;;;;;13.18;4.38;;;;;;;18.61;77.33;100808.03;5057641;28;20024;-65
2022/06/03 03:28:19;;;;;;;7.88;4.40;;;;;;;18.61;77.46;100806.16;5050412;28;20073;-64
2022/06/03 03:31:22;;;;;;;13.38;4.90;;;;;;;18.60;77.96;100804.44;5066408;28;20073;-65
2022/06/03 03:34:13;;;;;;;5.57;4.82;;;;;;;18.61;78.20;100803.44;5063671;28;20431;-65
2022/06/03 03:36:53;;;;;;;7.20;5.32;;;;;;;18.59;78.68;100808.19;5059795;28;20055;-64
2022/06/03 03:39:30;;;;;;;7.05;5.03;;;;;;;18.60;78.58;100807.16;5053018;28;20091;-65
2022/06/03 03:42:07;;;;;;;5.80;4.70;;;;;;;18.61;78.75;100811.59;5056581;28;20029;-64
2022/06/03 03:44:42;;;;;;;8.20;5.00;;;;;;;18.61;78.74;100805.31;5051328;28;20060;-65
2022/06/03 03:47:11;;;;;;;;;;;;;;;18.60;79.67;100809.88;5060223;28;20035;-64
2022/06/03 03:50:06;;;;;;;11.00;4.63;;;;;;;18.62;78.97;100810.56;5049039;28;20379;-64
2022/06/03 03:52:59;;;;;;;7.03;4.93;;;;;;;18.63;78.76;100809.53;5056633;28;20032;-65
2022/06/03 03:55:50;;;;;;;7.22;5.80;;;;;;;18.65;79.00;100812.94;5061684;28;20490;-63
2022/06/03 03:58:43;;;;;;;8.23;4.93;;;;;;;18.66;78.61;100811.03;5053562;28;20479;-63
2022/06/03 04:01:37;;;;;;;7.50;4.90;;;;;;;18.66;78.78;100816.47;5051613;28;20031;-64
2022/06/03 04:04:34;;;;;;;8.13;5.07;;;;;;;18.64;78.97;100813.94;5042846;28;20049;-64
2022/06/03 04:07:39;;;;;;;8.80;5.65;;;;;;;18.65;78.70;100812.94;5063700;28;20438;-64
2022/06/03 04:10:12;;;;;;;;;;;;;;;18.66;78.94;100813.75;5051751;28;20477;-64
2022/06/03 04:12:41;;;;;;;7.75;5.40;;;;;;;18.68;78.29;100814.44;5068338;28;19913;-64
2022/06/03 04:15:39;;;;;;;8.95;5.43;;;;;;;18.70;78.28;100820.56;5048688;28;20540;-64
2022/06/03 04:18:19;;;;;;;7.65;5.38;;;;;;;18.71;78.25;100817.69;5046985;28;20566;-64
2022/06/03 04:20:57;;;;;;;8.82;5.05;;;;;;;18.74;78.56;100816.47;5050513;28;20479;-64
2022/06/03 04:23:50;;;;;;;12.15;5.53;;;;;;;18.78;78.71;100815.94;5056417;28;20029;-64
2022/06/03 04:26:52;;;;;;;9.57;5.93;;;;;;;18.87;78.21;100819.47;5059534;28;20048;-64
2022/06/03 04:29:37;;;;;;;7.07;5.38;;;;;;;19.02;77.47;100821.28;5046629;28;20021;-64
2022/06/03 04:32:40;;;;;;;7.65;5.85;;;;;;;19.20;76.89;100829.19;5050274;28;20442;-65
2022/06/03 04:35:45;;;;;;;10.10;5.68;;;;;;;19.35;75.72;100825.56;5052415;28;20383;-64
2022/06/03 04:38:44;;;;;;;5.50;4.70;;;;;;;19.54;74.86;100819.66;5045171;28;20060;-65
2022/06/03 04:41:34;;;;;;;7.60;5.50;;;;;;;19.73;74.56;100813.75;5046609;28;20033;-64
2022/06/03 04:44:44;;;;;;;5.97;4.78;;;;;;;19.93;73.56;100819.56;5047865;28;20055;-64
2022/06/03 04:47:27;;;;;;;11.18;5.25;;;;;;;20.06;72.14;100823.34;5038045;28;20057;-64
2022/06/03 04:49:56;;;;;;;8.02;4.95;;;;;;;20.23;71.88;100825.97;5049658;28;20052;-64
2022/06/03 04:52:39;;;;;;;6.07;4.78;;;;;;;20.37;70.79;100823.25;5048596;28;20104;-65
2022/06/03 04:55:24;;;;;;;6.05;4.50;;;;;;;20.54;70.27;100832.13;5046172;28;20029;-64
2022/06/03 04:58:23;;;;;;;6.53;4.70;;;;;;;20.73;69.49;100826.97;5049165;28;20056;-64
2022/06/03 05:01:13;;;;;;;8.45;4.82;;;;;;;20.91;68.59;100832.03;5053923;28;20070;-65
2022/06/03 05:04:09;;;;;;;6.57;4.72;;;;;;;21.03;67.15;100833.31;5048227;28;20417;-65
2022/06/03 05:07:12;;;;;;;7.07;4.47;;;;;;;21.20;66.43;100824.72;5048114;28;20131;-64
2022/06/03 05:09:40;;;;;;;9.40;4.60;;;;;;;21.28;65.60;100830.06;5048247;28;20043;-65
2022/06/03 05:12:17;;;;;;;9.00;4.47;;;;;;;21.38;65.03;100837.97;5048682;28;20681;-65
2022/06/03 05:15:14;;;;;;;6.10;4.57;;;;;;;21.47;63.87;100836.81;5050401;28;20690;-65
2022/06/03 05:18:07;;;;;;;11.32;4.40;;;;;;;21.59;63.99;100832.53;5056793;28;20037;-65
2022/06/03 05:20:35;;;;;;;4.93;3.47;;;;;;;21.73;63.15;100842.59;5046910;28;20367;-64
2022/06/03 05:23:17;;;;;;;9.27;4.72;;;;;;;21.85;62.73;100835.56;5057270;28;20035;-64
2022/06/03 05:26:08;;;;;;;10.68;4.47;;;;;;;22.01;62.90;100835.31;5049016;28;20025;-66
2022/06/03 05:28:47;;;;;;;7.78;3.92;;;;;;;22.12;60.60;100848.47;5045784;28;20025;-64
2022/06/03 05:31:37;;;;;;;4.95;3.70;;;;;;;22.19;59.56;100846.63;5060667;28;20387;-65
2022/06/03 05:34:20;;;;;;;5.25;3.65;;;;;;;22.32;59.35;100846.75;5047746;28;20352;-64
2022/06/03 05:37:04;;;;;;;9.52;3.97;;;;;;;22.41;58.71;100848.31;5046012;28;20103;-65
2022/06/03 05:40:14;;;;;;;4.68;3.15;;;;;;;22.55;58.54;100857.47;5050586;28;20024;-65
2022/06/03 05:43:14;;;;;;;8.55;4.15;;;;;;;22.69;57.47;100857.34;5048830;28;20122;-65
2022/06/03 05:46:23;;;;;;;8.55;3.88;;;;;;;22.81;56.97;100860.38;5056749;28;20517;-65
2022/06/03 05:48:56;;;;;;;10.63;4.72;;;;;;;22.84;56.33;100859.97;5052212;28;20068;-64
2022/06/03 05:51:37;;;;;;;8.57;3.95;;;;;;;22.82;56.08;100864.84;5046077;28;20056;-64
2022/06/03 05:54:42;;;;;;;5.88;3.55;;;;;;;22.87;55.88;100854.13;5048996;28;20083;-64
2022/06/03 05:57:30;;;;;;;5.03;3.55;;;;;;;22.99;56.12;100847.03;5060141;28;20025;-64
2022/06/03 05:59:59;;;;;;;10.55;3.67;;;;;;;23.11;55.67;100865.41;5047109;28;20048;-64
2022/06/03 06:02:30;;;;;;;6.57;3.80;;;;;;;23.08;54.58;100867.72;5051926;28;20537;-64
2022/06/03 06:05:26;;;;;;;7.00;4.03;;;;;;;23.19;54.98;100862.53;5061148;28;20087;-65
2022/06/03 06:08:05;;;;;;;7.82;3.67;;;;;;;23.26;55.19;100868.06;5059578;28;20470;-65
2022/06/03 06:10:45;;;;;;;11.02;4.05;;;;;;;23.44;54.27;100860.97;5045998;28;20124;-64
2022/06/03 06:13:21;;;;;;;6.15;3.50;;;;;;;23.53;54.16;100859.75;5045939;28;20041;-64
2022/06/03 06:16:10;;;;;;;8.48;3.92;;;;;;;23.64;54.04;100861.88;5054455;28;20032;-64
2022/06/03 06:18:42;;;;;;;6.70;3.72;;;;;;;23.68;53.94;100863.19;5065576;28;20029;-64
2022/06/03 06:21:37;;;;;;;8.18;3.85;;;;;;;23.75;53.86;100844.00;5067506;28;20032;-64
2022/06/03 06:24:18;;;;;;;8.07;3.85;;;;;;;23.87;53.25;100856.91;5067280;28;20039;-64
2022/06/03 06:27:06;;;;;;;4.93;3.45;;;;;;;23.93;53.17;100861.53;5067096;28;20040;-64
2022/06/03 06:30:02;;;;;;;5.38;3.60;;;;;;;24.04;52.93;100860.97;5065618;28;20043;-64
2022/06/03 06:32:53;;;;;;;12.45;3.50;;;;;;;24.03;52.56;100853.81;5065438;28;20035;-64
2022/06/03 06:35:37;;;;;;;9.07;4.10;;;;;;;24.08;52.54;100861.38;5067203;28;20408;-64
2022/06/03 06:38:20;;;;;;;6.97;4.23;;;;;;;24.16;51.96;100866.69;5066775;28;20067;-64
2022/06/03 06:40:57;;;;;;;8.15;4.65;;;;;;;24.24;52.37;100861.84;5048035;28;20411;-65
2022/06/03 06:43:32;;;;;;;4.03;3.00;;;;;;;24.36;52.33;100854.69;5064822;28;20068;-64
2022/06/03 06:46:18;;;;;;;6.55;3.35;;;;;;;24.60;52.07;100866.88;5066995;28;20032;-64
2022/06/03 06:48:50;;;;;;;3.53;2.70;;;;;;;24.82;51.64;100868.38;5067139;28;20025;-64
2022/06/03 06:51:47;;;;;;;7.60;3.70;;;;;;;24.92;50.63;100860.53;5070946;28;20036;-64
2022/06/03 06:54:21;;;;;;;7.13;3.10;;;;;;;25.09;50.27;100855.44;5059126;28;20028;-64
2022/06/03 06:56:53;;;;;;;6.63;3.40;;;;;;;25.33;49.82;100873.97;5050413;28;20029;-65
2022/06/03 06:59:33;;;;;;;7.93;3.90;;;;;;;25.48;49.21;100867.19;5049302;28;20027;-64
2022/06/03 07:02:18;;;;;;;18.55;4.03;;;;;;;25.66;49.18;100875.53;5050694;28;20020;-65
2022/06/03 07:05:04;;;;;;;6.43;3.42;;;;;;;25.84;48.82;100867.41;5050370;28;20455;-65
2022/06/03 07:07:37;;;;;;;7.05;3.10;;;;;;;26.01;47.98;100857.59;5050330;28;20036;-65
2022/06/03 07:10:20;;;;;;;6.05;3.20;;;;;;;26.18;47.43;100858.75;5050278;28;20027;-65
2022/06/03 07:12:54;;;;;;;9.57;4.10;;;;;;;26.25;46.96;100856.78;5056989;28;20032;-65
2022/06/03 07:15:47;;;;;;;10.73;3.53;;;;;;;26.23;47.09;100850.69;5070098;28;20257;-65
2022/06/03 07:21:18;;;;;;;7.60;3.38;;;;;;;26.34;47.17;100863.69;5054650;28;20091;-65
2022/06/03 07:24:01;;;;;;;7.85;3.35;;;;;;;26.37;46.51;100851.41;5061567;28;20036;-66
2022/06/03 07:26:29;;;;;;;5.63;3.10;;;;;;;26.49;47.05;100863.38;5069833;28;20032;-65
2022/06/03 07:29:11;;;;;;;4.30;3.22;;;;;;;26.60;46.49;100851.66;5063117;28;20068;-66
2022/06/03 07:31:44;;;;;;;4.15;3.10;;;;;;;26.69;46.16;100861.31;5049569;28;20471;-66
2022/06/03 07:34:15;;;;;;;4.88;3.20;;;;;;;26.76;46.52;100859.34;5048282;28;20033;-66
2022/06/03 07:36:52;;;;;;;4.18;2.97;;;;;;;26.82;46.24;100860.34;5049461;28;20368;-66
2022/06/03 07:39:35;;;;;;;5.82;3.50;;;;;;;26.90;45.52;100855.41;5050029;28;20491;-66
2022/06/03 07:42:26;;;;;;;6.55;3.00;;;;;;;27.02;46.26;100858.25;5049546;28;20037;-67
2022/06/03 07:45:21;;;;;;;3.92;2.85;;;;;;;27.06;45.48;100849.28;5049366;28;20025;-66
2022/06/03 07:47:47;;;;;;;7.78;3.03;;;;;;;27.22;45.16;100851.44;5058613;28;20036;-66
2022/06/03 07:50:18;;;;;;;5.45;3.63;;;;;;;27.33;45.14;100852.59;5069463;28;20382;-66
2022/06/03 07:53:07;;;;;;;3.70;3.10;;;;;;;27.27;45.07;100817.72;5069579;28;20534;-64
2022/06/03 07:55:35;;;;;;;4.20;2.70;;;;;;;27.49;44.97;100840.94;5055845;28;20051;-64
2022/06/03 07:58:09;;;;;;;4.50;2.65;;;;;;;27.69;44.92;100842.38;5049616;28;20033;-64
2022/06/03 08:00:39;;;;;;;3.38;2.90;;;;;;;27.80;44.10;100847.09;5047233;28;20040;-64
2022/06/03 08:03:21;;;;;;;4.88;3.40;;;;;;;27.87;43.80;100833.25;5048947;28;20116;-64
2022/06/03 08:05:50;;;;;;;5.68;3.00;;;;;;;28.02;44.06;100836.41;5049010;28;20048;-64
2022/06/03 08:11:12;;;;;;;3.45;2.88;;;;;;;28.24;44.20;100824.56;5049136;28;20031;-64
2022/06/03 08:13:40;;;;;;;8.20;3.10;;;;;;;28.34;44.06;100832.28;5048752;28;20692;-65
2022/06/03 08:16:13;;;;;;;5.18;2.88;;;;;;;28.30;42.92;100833.81;5048748;28;20029;-65
2022/06/03 08:18:40;;;;;;;3.77;3.00;;;;;;;28.34;43.05;100830.34;5048779;28;20029;-65
2022/06/03 08:21:19;;;;;;;5.47;2.75;;;;;;;28.39;43.15;100827.72;5048958;28;20300;-66
2022/06/03 08:23:45;;;;;;;4.65;2.90;;;;;;;28.42;42.95;100835.53;5048628;28;20574;-65
2022/06/03 08:26:15;;;;;;;4.25;2.65;;;;;;;28.43;42.06;100826.16;5048801;28;20041;-65
2022/06/03 08:28:47;;;;;;;4.68;2.38;;;;;;;28.56;42.05;100838.91;5048304;28;20717;-65
2022/06/03 08:31:13;;;;;;;4.60;3.10;;;;;;;28.63;42.04;100841.59;5048774;28;20459;-65
2022/06/03 08:33:48;;;;;;;4.68;2.78;;;;;;;28.63;41.81;100839.66;5050932;28;20032;-65
2022/06/03 08:36:18;;;;;;;2.63;2.30;;;;;;;28.64;42.12;100835.81;5048617;28;20097;-65
2022/06/03 08:38:57;;;;;;;4.57;2.70;;;;;;;28.71;41.92;100842.06;5048420;28;20060;-65
2022/06/03 08:41:40;;;;;;;3.65;2.75;;;;;;;28.76;41.50;100833.06;5048897;28;20094;-65
2022/06/03 08:44:16;;;;;;;2.65;2.15;;;;;;;28.84;41.24;100847.34;5048477;28;20028;-65
2022/06/03 08:46:51;;;;;;;3.03;2.17;;;;;;;28.92;40.81;100843.38;5065287;28;20035;-65
2022/06/03 08:49:28;;;;;;;6.82;2.85;;;;;;;28.90;41.14;100832.56;5058638;28;20095;-65
2022/06/03 08:52:04;;;;;;;7.22;3.00;;;;;;;28.97;40.63;100832.44;5046939;28;20447;-65
2022/06/03 08:54:44;;;;;;;6.43;2.40;;;;;;;29.05;40.95;100843.97;5048056;28;20056;-66
2022/06/03 08:57:10;;;;;;;4.07;2.42;;;;;;;29.15;40.34;100846.16;5048247;28;20090;-65
2022/06/03 08:59:52;;;;;;;3.03;2.28;;;;;;;29.18;40.28;100831.84;5048147;28;20479;-65
2022/06/03 09:02:33;;;;;;;3.13;2.22;;;;;;;29.27;39.85;100838.69;5048497;28;20032;-65
2022/06/03 09:05:14;;;;;;;3.60;2.28;;;;;;;29.31;39.87;100831.56;5048119;28;20128;-65
2022/06/03 09:07:54;;;;;;;5.13;2.40;;;;;;;29.39;39.37;100845.00;5046467;28;20128;-65
2022/06/03 09:10:29;;;;;;;3.13;2.13;;;;;;;29.50;39.20;100835.84;5048252;28;20041;-65
2022/06/03 09:13:09;;;;;;;2.45;2.20;;;;;;;29.60;38.64;100831.34;5047817;28;20535;-65
2022/06/03 09:15:44;;;;;;;3.80;2.45;;;;;;;29.70;38.45;100826.06;5047832;28;20028;-65
2022/06/03 09:18:28;;;;;;;2.92;2.28;;;;;;;29.78;38.86;100827.56;5046336;28;20491;-65
2022/06/03 09:21:13;;;;;;;3.58;2.50;;;;;;;29.84;38.97;100815.53;5047826;28;20033;-65
2022/06/03 09:23:54;;;;;;;6.20;2.20;;;;;;;29.81;37.74;100813.25;5047602;28;20395;-66
2022/06/03 09:26:32;;;;;;;3.58;2.15;;;;;;;29.86;37.92;100813.38;5058515;28;20032;-65
2022/06/03 09:29:00;;;;;;;3.67;2.30;;;;;;;29.84;37.77;100813.59;5067532;28;20368;-65
2022/06/03 09:31:26;;;;;;;4.05;2.22;;;;;;;29.87;38.21;100812.25;5055198;28;20434;-65
2022/06/03 09:33:54;;;;;;;5.68;2.42;;;;;;;29.83;37.68;100817.47;5051758;28;20111;-65
2022/06/03 09:36:23;;;;;;;2.63;1.98;;;;;;;29.80;37.60;100814.34;5067942;28;20029;-65
2022/06/03 09:38:53;;;;;;;2.75;1.92;;;;;;;29.75;37.24;100825.31;5067450;28;20025;-65
2022/06/03 09:41:23;;;;;;;2.40;1.88;;;;;;;29.75;36.87;100822.53;5068012;28;20031;-65
2022/06/03 09:43:55;;;;;;;2.30;1.58;;;;;;;29.83;36.60;100816.63;5067593;28;20028;-65
2022/06/03 09:46:24;;;;;;;3.25;1.90;;;;;;;29.90;36.55;100815.38;5067810;28;20032;-65
2022/06/03 09:48:51;;;;;;;3.13;2.20;;;;;;;29.90;36.48;100809.00;5051545;28;20033;-65
2022/06/03 09:51:55;;;;;;;3.50;1.90;;;;;;;29.93;36.79;100811.28;5047506;28;20497;-65
2022/06/03 09:54:20;;;;;;;3.13;1.98;;;;;;;29.99;36.54;100811.09;5047189;28;20060;-65
2022/06/03 09:56:50;;;;;;;5.72;2.00;;;;;;;29.91;36.10;100800.47;5056320;28;20055;-65
2022/06/03 09:59:19;;;;;;;3.28;1.80;;;;;;;29.89;35.77;100796.25;5067306;28;20073;-65
2022/06/03 10:01:45;;;;;;;4.43;1.85;;;;;;;29.95;35.96;100800.81;5067189;28;20130;-65
2022/06/03 10:04:12;;;;;;;2.60;2.03;;;;;;;29.97;35.83;100790.31;5067160;28;20123;-66
2022/06/03 10:06:43;;;;;;;2.35;1.70;;;;;;;30.07;35.45;100799.63;5066372;28;20044;-66
2022/06/03 10:17:47;;;;;;;3.35;2.25;;;;;;;30.30;35.97;100784.81;5066585;28;20106;-66
2022/06/03 10:20:13;;;;;;;4.18;2.00;;;;;;;30.34;35.79;100788.78;5066596;28;20482;-65
2022/06/03 10:22:40;;;;;;;4.60;1.92;;;;;;;30.35;35.64;100793.22;5066209;28;20028;-66
2022/06/03 10:25:07;;;;;;;2.70;2.20;;;;;;;30.25;34.95;100796.66;5068248;28;20025;-65
2022/06/03 10:27:33;;;;;;;2.20;1.75;;;;;;;30.26;35.27;100794.72;5069909;28;20089;-65
2022/06/03 10:29:59;;;;;;;1.98;1.85;;;;;;;30.31;35.19;100794.81;5070421;28;20039;-65
2022/06/03 10:32:26;;;;;;;2.63;1.88;;;;;;;30.35;34.57;100796.00;5070488;28;20036;-67
2022/06/03 10:34:56;;;;;;;3.30;1.75;;;;;;;30.36;34.58;100798.50;5068785;28;20024;-69
2022/06/03 10:37:25;;;;;;;3.83;1.98;;;;;;;30.24;34.96;100791.41;5069350;28;20483;-66
2022/06/03 10:39:55;;;;;;;4.50;2.10;;;;;;;30.20;34.89;100792.97;5070245;28;20078;-66
2022/06/03 10:42:22;;;;;;;1.88;1.70;;;;;;;30.16;34.50;100794.53;5060237;28;20035;-67
2022/06/03 10:44:56;;;;;;;2.85;1.67;;;;;;;30.08;35.22;100783.88;5063386;28;20737;-66
2022/06/03 10:47:38;;;;;;;5.90;1.85;;;;;;;30.15;35.36;100792.84;5070777;28;20032;-65
2022/06/03 10:50:25;;;;;;;2.58;2.03;;;;;;;30.20;35.36;100796.56;5063310;28;20057;-65
2022/06/03 11:01:45;;;;;;;4.70;1.80;;;;;;;30.19;35.52;100791.28;5057271;28;20093;-66
2022/06/03 11:04:23;;;;;;;2.10;1.65;;;;;;;30.25;34.65;100777.25;5070587;28;20035;-66
2022/06/03 11:06:48;;;;;;;1.70;1.55;;;;;;;30.30;34.40;100774.59;5069853;28;20061;-66
2022/06/03 11:09:15;;;;;;;2.63;1.70;;;;;;;30.33;34.24;100770.47;5070396;28;20028;-66
2022/06/03 11:11:44;;;;;;;3.05;2.10;;;;;;;30.44;33.95;100773.16;5064389;28;20494;-66
2022/06/03 11:14:22;;;;;;;3.28;1.60;;;;;;;30.49;34.13;100772.41;5050233;28;20051;-66
2022/06/03 11:17:24;;;;;;;1.75;1.58;;;;;;;30.43;33.36;100763.19;5048663;28;20150;-66
2022/06/03 11:19:52;;;;;;;1.40;1.30;;;;;;;30.45;33.44;100763.78;5066589;28;20029;-66
2022/06/03 11:22:43;;;;;;;3.05;1.40;;;;;;;30.46;33.46;100759.91;5069372;28;20020;-66
2022/06/03 11:25:18;;;;;;;2.08;1.35;;;;;;;30.43;33.12;100752.09;5067553;28;20044;-66
2022/06/03 11:28:01;;;;;;;3.45;1.60;;;;;;;30.51;33.39;100753.59;5066758;28;20028;-66
2022/06/03 11:31:00;;;;;;;1.43;1.20;;;;;;;30.55;33.69;100743.69;5066629;28;20025;-66
2022/06/03 11:33:30;;;;;;;1.48;1.25;;;;;;;30.60;33.54;100730.75;5059232;28;20036;-66
2022/06/03 11:36:21;;;;;;;2.47;1.63;;;;;;;30.70;33.10;100732.00;5069778;28;20035;-66
2022/06/03 11:38:55;;;;;;;3.05;1.42;;;;;;;30.73;33.33;100729.59;5069517;28;20028;-65
2022/06/03 11:41:25;;;;;;;2.38;1.70;;;;;;;30.73;33.44;100731.50;5069628;28;20389;-66
2022/06/03 11:43:58;;;;;;;3.75;1.58;;;;;;;30.77;33.31;100725.22;5058819;28;20766;-66
2022/06/03 11:46:32;;;;;;;1.95;1.67;;;;;;;30.75;33.57;100726.56;5053356;28;20044;-66
2022/06/03 11:48:57;;;;;;;4.72;1.63;;;;;;;30.73;33.62;100731.50;5049690;28;20029;-66
2022/06/03 11:51:25;;;;;;;4.95;1.65;;;;;;;30.67;33.70;100714.78;5049536;28;20044;-66
2022/06/03 11:53:52;;;;;;;2.38;1.65;;;;;;;30.74;33.56;100716.56;5055472;28;20127;-66
2022/06/03 11:56:24;;;;;;;2.53;1.63;;;;;;;30.74;33.48;100714.63;5069341;28;20489;-66
2022/06/03 11:58:55;;;;;;;2.95;1.73;;;;;;;30.77;33.41;100721.59;5067792;28;20478;-66
2022/06/03 12:02:02;;;;;;;2.15;1.48;;;;;;;30.77;33.40;100716.03;5063189;28;20024;-66
2022/06/03 12:05:12;;;;;;;2.80;1.52;;;;;;;30.82;33.07;100716.94;5034253;28;20036;-66
2022/06/03 12:07:59;;;;;;;2.65;1.65;;;;;;;30.83;33.07;100709.47;5026236;28;20045;-66
2022/06/03 12:10:48;;;;;;;5.10;1.52;;;;;;;30.80;33.04;100708.06;5069502;28;20576;-66
2022/06/03 12:13:34;;;;;;;3.65;1.58;;;;;;;30.67;32.95;100702.88;5068920;28;20390;-65
2022/06/03 12:16:05;;;;;;;4.82;1.58;;;;;;;30.65;33.29;100701.47;5068947;28;20043;-65
2022/06/03 12:18:39;;;;;;;2.80;1.70;;;;;;;30.69;33.17;100697.09;5067337;28;20398;-65
2022/06/03 12:21:33;;;;;;;2.42;1.52;;;;;;;30.71;32.88;100683.78;5068552;28;20028;-66
2022/06/03 12:24:22;;;;;;;;;;;;;;;30.72;32.89;100697.38;5066008;28;20032;-66
2022/06/03 12:26:49;;;;;;;1.80;1.20;;;;;;;30.71;33.14;100672.72;5050679;28;20158;-65
2022/06/03 12:29:28;;;;;;;5.03;1.30;;;;;;;30.82;33.12;100686.47;5045943;28;20421;-65
2022/06/03 12:31:54;;;;;;;4.30;1.60;;;;;;;30.79;33.03;100681.47;5048460;28;20386;-65
2022/06/03 12:34:20;;;;;;;4.65;1.63;;;;;;;30.91;32.92;100682.16;5051325;28;20057;-67
2022/06/03 12:36:51;;;;;;;1.75;1.30;;;;;;;30.95;32.64;100680.53;5068226;28;20432;-65
2022/06/03 12:39:25;;;;;;;1.58;1.45;;;;;;;30.94;32.62;100670.56;5068485;28;20088;-64
2022/06/03 12:42:04;;;;;;;2.03;1.27;;;;;;;30.97;32.73;100675.59;5068284;28;20037;-69
2022/06/03 12:44:37;;;;;;;3.13;1.77;;;;;;;30.92;32.92;100658.06;5055394;28;20060;-67
2022/06/03 12:47:26;;;;;;;3.65;1.30;;;;;;;31.09;33.01;100670.75;5047782;28;20067;-66
2022/06/03 12:50:16;;;;;;;1.75;1.40;;;;;;;31.09;32.66;100658.81;5046550;28;20041;-66
2022/06/03 12:52:45;;;;;;;1.88;1.70;;;;;;;31.23;32.63;100651.75;5046340;28;20513;-66
2022/06/03 12:55:36;;;;;;;5.88;1.83;;;;;;;31.29;32.73;100646.03;5046577;28;20489;-66